• Join FlightAware (Why Join?)
  • Login
  • US Flag 
02:30PM EDT


 

Airport Tracker/Info


-or-


 

Live Flight TrackerFlight Track Log ✈ JZA8247 ✈ 26-Jun-2013 ✈ CYCG - CYVR

Flight Track Log - Related Links

Times and Time Zones

All times are in EDT time to prevent confusion due to time zone crossing. See the JZA8247 flight status page for this flight to view local times or setup timezone preferences in your user account.

Time Position Orientation Groundspeed Altitude Reporting Facility
EDT Latitude Longitude Course Direction KTS MPH feet Rate Location/Type
11:56AM 49.1667 -117.7000 267° West 130 150 7,500  Level Vancouver Center
11:58AM 49.4943 -117.8259 265° West  Level FlightAware Approximate
11:58AM 49.1833 -117.8167 282° West 150 173 10,100  Level Vancouver Center
11:59AM 49.4911 -117.9208 267° West  Level Estimated
11:59AM 49.1833 -117.9000 270° West 160 184 11,500  Level Vancouver Center
12:00PM 49.4879 -118.0157 267° West  Level Estimated
12:00PM 49.1833 -117.9667 270° West 180 207 12,300  Level Vancouver Center
12:01PM 49.4846 -118.1105 267° West  Level Estimated
12:01PM 49.2000 -118.0500 287° West 180 207 13,400  Level Vancouver Center
12:02PM 49.4813 -118.2054 267° West  Level Estimated
12:02PM 49.2167 -118.1167 291° West 190 219 14,100  Level Vancouver Center
12:03PM 49.2167 -118.2000 270° West 190 219 15,100 900 Climbing Vancouver Center
12:04PM 49.2167 -118.3000 270° West 200 230 15,900 840 Climbing Vancouver Center
12:05PM 49.2333 -118.3833 287° West 200 230 16,800 780 Climbing Vancouver Center
12:06PM 49.2333 -118.4500 270° West 200 230 17,500 660 Climbing Vancouver Center
12:07PM 49.2500 -118.5333 287° West 200 230 18,200 660 Climbing Vancouver Center
12:08PM 49.2500 -118.6333 270° West 200 230 18,900 660 Climbing Vancouver Center
12:09PM 49.2500 -118.7000 270° West 200 230 19,600 540 Climbing Vancouver Center
12:10PM 49.2667 -118.8167 282° West 200 230 20,000 180 Climbing Vancouver Center
12:11PM 49.2833 -118.8833 291° West 220 253 20,000  Level Vancouver Center
12:12PM 49.2833 -118.9833 270° West 240 276 20,000  Level Vancouver Center
12:13PM 49.2833 -119.0833 270° West 240 276 20,000  Level Vancouver Center
12:14PM 49.3000 -119.1833 284° West 250 288 20,000  Level Vancouver Center
12:15PM 49.3167 -119.2833 284° West 250 288 20,000  Level Vancouver Center
12:16PM 49.3167 -119.4000 270° West 250 288 20,000  Level Vancouver Center
12:17PM 49.3167 -119.5167 270° West 250 288 20,000  Level Vancouver Center
12:18PM 49.3333 -119.6167 284° West 250 288 20,000  Level Vancouver Center
12:19PM 49.3500 -119.7167 284° West 240 276 20,000  Level Vancouver Center
12:20PM 49.3500 -119.8333 270° West 250 288 20,000  Level Vancouver Center
12:21PM 49.3500 -119.9333 270° West 250 288 20,000  Level Vancouver Center
12:22PM 49.3833 -120.0333 297° West 250 288 20,000  Level Vancouver Center
12:23PM 49.3833 -120.1333 270° West 250 288 20,000  Level Vancouver Center
12:24PM 49.3833 -120.2667 270° West 250 288 20,000  Level Vancouver Center
12:25PM 49.3833 -120.3667 270° West 250 288 20,000  Level Vancouver Center
12:26PM 49.3833 -120.4333 270° West 250 288 20,000  Level Vancouver Center
12:27PM 49.4000 -120.5667 281° West 240 276 20,000  Level Vancouver Center
12:28PM 49.4000 -120.6667 270° West 250 288 20,000  Level Vancouver Center
12:29PM 49.4000 -120.7667 270° West 240 276 20,000  Level Vancouver Center
12:30PM 49.4000 -120.8667 270° West 240 276 20,000  Level Vancouver Center
12:31PM 49.4000 -120.9833 270° West 250 288 20,000  Level Vancouver Center
12:32PM 49.3833 -121.0833 256° West 250 288 20,000  Level Vancouver Center
12:33PM 49.4000 -121.1833 284° West 250 288 20,000  Level Vancouver Center
12:34PM 49.4000 -121.2833 270° West 250 288 20,000  Level Vancouver Center
12:35PM 49.4000 -121.3833 270° West 240 276 20,000 -240 Level Vancouver Center
12:36PM 49.4000 -121.4833 270° West 240 276 19,600 -900 Descending Vancouver Center
12:37PM 49.4000 -121.6167 270° West 260 299 18,200 -1,440 Descending Vancouver Center
12:38PM 49.3833 -121.7167 256° West 280 322 16,800 -1,440 Descending Vancouver Center
12:39PM 49.3833 -121.8500 270° West 270 311 15,400 -1,260 Descending Vancouver Center
12:40PM 49.3833 -121.9500 270° West 240 276 14,300 -1,140 Descending Vancouver Center
12:41PM 49.4000 -122.0500 284° West 230 265 13,200 -1,200 Descending Vancouver Center
12:42PM 49.4000 -122.1500 270° West 230 265 12,000 -1,200 Descending Vancouver Center
12:43PM 49.4000 -122.2667 270° West 240 276 10,800 -1,020 Descending Vancouver Center
12:44PM 49.3833 -122.3667 256° West 240 276 10,000 -420 Descending Vancouver Center
12:45PM 49.3500 -122.4333 233° Southwest 220 253 10,000  Level Vancouver Center
12:46PM 49.3167 -122.5167 238° Southwest 220 253 10,000  Level Vancouver Center
12:47PM 49.2833 -122.6000 239° Southwest 230 265 10,000  Level Vancouver Center
12:48PM 49.2500 -122.7000 243° Southwest 230 265 10,000  Level Vancouver Center
12:49PM 49.2333 -122.8000 256° West 230 265 10,000  Level Vancouver Center
12:50PM 49.2167 -122.8833 253° West 230 265 10,000  Level Vancouver Center
12:51PM 49.2333 -122.9833 284° West 230 265 10,000 -420 Level Vancouver Center
12:52PM 49.2500 -123.0833 284° West 240 276 9,200 -1,200 Descending Vancouver Center
12:53PM 49.2500 -123.1833 270° West 260 299 7,600 -1,500 Descending Vancouver Center
12:54PM 49.2667 -123.2833 284° West 250 288 6,200 -1,500 Descending Vancouver Center
12:55PM 49.2833 -123.3833 284° West 240 276 4,600 -1,500 Descending Vancouver Center
12:56PM 49.2500 -123.4667 239° Southwest 220 253 3,200 -1,200 Descending Vancouver Center
12:57PM 49.2167 -123.4333 147° Southeast 180 207 2,200 -600 Descending Vancouver Center
12:58PM 49.2000 -123.3667 111° Southeast 170 196 2,000 -240 Descending Vancouver Center